Time;durP1;ratioP1;P1;durP2;ratioP2;P2;SDS_P1;SDS_P2;PMS_P1;PMS_P2;Temp;Humidity;BMP_temperature;BMP_pressure;BME280_temperature;BME280_humidity;BME280_pressure;Samples;Min_cycle;Max_cycle;Signal;HPM_P1;HPM_P2
2023/08/02 04:02:35;;;;;;;1.70;1.60;;;18.80;99.90;;;;;;5062114;22;20494;-70
2023/08/02 04:05:04;;;;;;;0.60;0.10;;;18.70;99.90;;;;;;5032439;28;20438;-72
2023/08/02 04:07:31;;;;;;;2.20;1.33;;;18.70;99.90;;;;;;5032797;28;20535;-72
2023/08/02 04:09:59;;;;;;;0.60;0.10;;;18.70;99.90;;;;;;5033371;28;20438;-72
2023/08/02 04:12:27;;;;;;;0.60;0.10;;;18.70;99.90;;;;;;5032778;28;20983;-72
2023/08/02 04:14:55;;;;;;;0.60;0.10;;;18.70;99.90;;;;;;5031822;28;20931;-70
2023/08/02 04:17:25;;;;;;;0.60;0.10;;;18.80;99.90;;;;;;5031371;28;20445;-69
2023/08/02 04:19:54;;;;;;;0.60;0.10;;;18.80;99.90;;;;;;5031348;28;20858;-69
2023/08/02 04:22:22;;;;;;;0.60;0.10;;;18.70;99.90;;;;;;5031382;28;20488;-69
2023/08/02 04:24:50;;;;;;;0.60;0.10;;;18.80;99.90;;;;;;5035610;28;20446;-70
2023/08/02 04:27:17;;;;;;;0.60;0.20;;;18.70;99.90;;;;;;5035041;28;20450;-69
2023/08/02 04:29:45;;;;;;;0.60;0.10;;;18.70;99.90;;;;;;5035071;28;20453;-70
2023/08/02 04:32:13;;;;;;;0.60;0.10;;;18.60;99.90;;;;;;5032664;28;20471;-70
2023/08/02 04:34:41;;;;;;;0.60;0.10;;;;;;;;;;5033689;28;20480;-72
2023/08/02 04:37:10;;;;;;;0.60;0.10;;;18.60;99.90;;;;;;5031504;28;20498;-71
2023/08/02 04:39:38;;;;;;;2.57;1.70;;;18.60;99.90;;;;;;5032499;28;20458;-69
2023/08/02 04:42:06;;;;;;;0.60;0.10;;;18.50;99.90;;;;;;5044012;28;20869;-71
2023/08/02 04:44:34;;;;;;;1.27;0.40;;;18.50;99.90;;;;;;5041659;28;20489;-70
2023/08/02 04:47:02;;;;;;;0.60;0.10;;;18.50;99.90;;;;;;5034600;28;20453;-71
2023/08/02 04:49:29;;;;;;;0.60;0.20;;;18.50;99.90;;;;;;5035263;28;20474;-70
2023/08/02 04:51:57;;;;;;;0.87;0.20;;;18.50;99.90;;;;;;5048124;28;20825;-71
2023/08/02 04:54:26;;;;;;;0.60;0.10;;;18.40;99.90;;;;;;5043654;28;20531;-72
2023/08/02 04:56:54;;;;;;;0.60;0.40;;;18.50;99.90;;;;;;5046286;28;20475;-70
2023/08/02 04:59:24;;;;;;;0.60;0.20;;;18.50;99.90;;;;;;5053408;28;20450;-70
2023/08/02 05:01:52;;;;;;;0.60;0.10;;;18.40;99.90;;;;;;5037331;28;20521;-72
2023/08/02 05:04:20;;;;;;;0.80;0.53;;;18.50;99.90;;;;;;5036924;28;20508;-69
2023/08/02 05:06:47;;;;;;;0.90;0.50;;;18.50;99.90;;;;;;5034950;28;20451;-70
2023/08/02 05:09:15;;;;;;;0.70;0.30;;;18.50;99.90;;;;;;5040637;28;20554;-70
2023/08/02 05:11:44;;;;;;;1.07;0.83;;;18.50;99.90;;;;;;5034590;28;20538;-69
2023/08/02 05:14:12;;;;;;;0.60;0.20;;;18.60;99.90;;;;;;5034108;28;20467;-70
2023/08/02 05:16:40;;;;;;;0.60;0.20;;;18.60;99.90;;;;;;5033980;28;20475;-71
2023/08/02 05:19:08;;;;;;;0.60;0.10;;;18.50;99.90;;;;;;5034347;28;20470;-70
2023/08/02 05:21:36;;;;;;;0.60;0.10;;;18.60;99.90;;;;;;5033347;28;20490;-68
2023/08/02 05:24:04;;;;;;;0.60;0.20;;;18.60;99.90;;;;;;5033385;28;20469;-69
2023/08/02 05:26:32;;;;;;;6.60;3.87;;;18.60;99.90;;;;;;5032761;28;21115;-69
2023/08/02 05:29:01;;;;;;;1.77;1.37;;;18.60;99.90;;;;;;5033247;28;20851;-69
2023/08/02 05:31:29;;;;;;;0.60;0.10;;;18.60;99.90;;;;;;5045321;28;20513;-70
2023/08/02 05:33:57;;;;;;;0.60;0.13;;;18.60;99.90;;;;;;5021584;28;20471;-70
2023/08/02 05:36:25;;;;;;;0.60;0.20;;;18.60;99.90;;;;;;5022157;28;20485;-71
2023/08/02 05:38:53;;;;;;;3.40;0.47;;;18.60;99.90;;;;;;5040718;28;20546;-71
2023/08/02 05:41:21;;;;;;;1.53;1.43;;;18.60;99.90;;;;;;5015484;28;20533;-69
2023/08/02 05:43:48;;;;;;;0.60;0.10;;;18.60;99.90;;;;;;5053207;28;20473;-70
2023/08/02 05:46:18;;;;;;;0.60;0.10;;;18.60;99.90;;;;;;5029939;28;20545;-70
2023/08/02 05:48:45;;;;;;;0.60;0.20;;;18.60;99.90;;;;;;5018205;28;20466;-71
2023/08/02 05:51:14;;;;;;;0.60;0.20;;;18.70;99.90;;;;;;5024211;28;20509;-71
2023/08/02 05:53:40;;;;;;;0.60;0.20;;;18.70;99.90;;;;;;5035484;28;20934;-74
2023/08/02 05:56:08;;;;;;;0.60;0.10;;;18.70;99.90;;;;;;5052946;28;20485;-74
2023/08/02 05:58:36;;;;;;;0.60;0.10;;;18.70;99.90;;;;;;5025302;28;20521;-74
2023/08/02 06:01:04;;;;;;;0.60;0.10;;;18.70;99.90;;;;;;5045047;28;20639;-74
2023/08/02 06:03:36;;;;;;;2.40;2.20;;;18.60;99.90;;;;;;5051162;28;20516;-73
2023/08/02 06:06:04;;;;;;;0.60;0.10;;;18.70;99.90;;;;;;5051523;28;20453;-74
2023/08/02 06:08:33;;;;;;;0.60;0.23;;;;;;;;;;5051630;28;20446;-74
2023/08/02 06:11:01;;;;;;;1.13;0.40;;;18.60;99.90;;;;;;5052617;28;20462;-73
2023/08/02 06:13:29;;;;;;;0.60;0.10;;;18.60;99.90;;;;;;5050129;28;20466;-74
2023/08/02 06:15:57;;;;;;;0.60;0.10;;;18.60;99.90;;;;;;5032718;28;20488;-73
2023/08/02 06:18:25;;;;;;;1.47;1.23;;;18.50;99.90;;;;;;5032361;28;20442;-73
2023/08/02 06:20:54;;;;;;;0.80;0.40;;;18.50;99.90;;;;;;5032556;28;20498;-73
2023/08/02 06:23:22;;;;;;;0.60;0.20;;;;;;;;;;5031954;28;20485;-72
2023/08/02 06:25:50;;;;;;;0.60;0.10;;;18.50;99.90;;;;;;5031955;28;20541;-74
2023/08/02 06:28:18;;;;;;;0.60;0.10;;;18.50;99.90;;;;;;5032107;28;20740;-73
2023/08/02 06:30:46;;;;;;;0.60;0.10;;;18.50;99.90;;;;;;5031655;28;20535;-73
2023/08/02 06:33:14;;;;;;;0.67;0.10;;;18.50;99.90;;;;;;5033363;28;20450;-73
2023/08/02 06:35:42;;;;;;;0.60;0.10;;;18.60;99.90;;;;;;5033691;28;20550;-73
2023/08/02 06:38:11;;;;;;;0.60;0.20;;;18.60;99.90;;;;;;5032260;28;20533;-73
2023/08/02 06:40:39;;;;;;;0.60;0.10;;;18.60;99.90;;;;;;5031837;28;20975;-74
2023/08/02 06:43:07;;;;;;;0.80;0.40;;;18.60;99.90;;;;;;5035204;28;20580;-75
2023/08/02 06:45:35;;;;;;;0.60;0.20;;;18.60;99.90;;;;;;5051529;28;20496;-74
2023/08/02 06:48:03;;;;;;;2.80;1.90;;;18.60;99.90;;;;;;5051179;28;20829;-75
2023/08/02 06:50:30;;;;;;;0.60;0.10;;;18.60;99.90;;;;;;5051823;28;20437;-74
2023/08/02 06:52:59;;;;;;;0.60;0.20;;;;;;;;;;5051910;28;20449;-73
2023/08/02 06:55:28;;;;;;;0.60;0.20;;;18.50;99.90;;;;;;5051550;28;20761;-73
2023/08/02 06:57:56;;;;;;;0.60;0.10;;;18.50;99.90;;;;;;5048300;28;20450;-74
2023/08/02 07:00:24;;;;;;;0.93;0.70;;;18.50;99.90;;;;;;5031333;28;20534;-73
2023/08/02 07:02:52;;;;;;;0.60;0.10;;;;;;;;;;5031671;28;20496;-74
2023/08/02 07:05:23;;;;;;;0.60;0.10;;;18.40;99.90;;;;;;5031501;28;20443;-74
2023/08/02 07:07:51;;;;;;;1.27;0.37;;;18.40;99.90;;;;;;5029835;28;20973;-74
2023/08/02 07:10:19;;;;;;;0.70;0.20;;;18.40;99.90;;;;;;5030988;28;20443;-73
2023/08/02 07:12:49;;;;;;;0.60;0.10;;;18.50;99.90;;;;;;5022619;28;20465;-66
2023/08/02 07:15:18;;;;;;;1.17;1.07;;;18.60;99.90;;;;;;5030889;28;20995;-67
2023/08/02 07:17:46;;;;;;;0.60;0.10;;;18.60;99.90;;;;;;5030750;28;20501;-68
2023/08/02 07:20:15;;;;;;;0.70;0.17;;;18.70;99.90;;;;;;5030751;28;20815;-68
2023/08/02 07:22:44;;;;;;;0.60;0.10;;;18.70;99.90;;;;;;5030910;28;20483;-67
2023/08/02 07:25:12;;;;;;;1.07;0.93;;;18.80;99.90;;;;;;5030628;28;20538;-68
2023/08/02 07:27:40;;;;;;;0.60;0.10;;;18.80;99.90;;;;;;5030512;28;20811;-75
2023/08/02 07:30:10;;;;;;;0.60;0.10;;;18.80;99.90;;;;;;5030809;28;20524;-75
2023/08/02 07:32:38;;;;;;;0.60;0.20;;;18.80;99.90;;;;;;5031047;28;20520;-78
2023/08/02 07:35:06;;;;;;;0.60;0.13;;;18.80;99.90;;;;;;5030734;28;20459;-73
2023/08/02 07:37:34;;;;;;;0.60;0.10;;;18.80;99.90;;;;;;5031888;28;20512;-73
2023/08/02 07:40:02;;;;;;;0.60;0.10;;;18.70;99.90;;;;;;5031331;28;20539;-74
2023/08/02 07:42:29;;;;;;;0.60;0.10;;;18.60;99.90;;;;;;5031300;28;20463;-74
2023/08/02 07:45:06;;;;;;;0.60;0.20;;;18.60;99.90;;;;;;5049905;28;20445;-73
2023/08/02 07:47:36;;;;;;;0.60;0.20;;;18.50;99.90;;;;;;5051747;28;20436;-74
2023/08/02 07:50:05;;;;;;;0.60;0.10;;;18.40;99.90;;;;;;5051770;28;20935;-75
2023/08/02 07:52:34;;;;;;;0.60;0.10;;;18.50;99.90;;;;;;5043080;28;20524;-75
2023/08/02 07:55:02;;;;;;;0.60;0.20;;;18.60;99.90;;;;;;5031561;28;20453;-66
2023/08/02 07:57:32;;;;;;;0.60;0.20;;;18.60;99.90;;;;;;5031342;28;20469;-66
2023/08/02 08:00:01;;;;;;;0.60;0.20;;;18.80;99.90;;;;;;5035108;28;20459;-66
2023/08/02 08:02:29;;;;;;;0.60;0.20;;;18.90;99.90;;;;;;5034696;28;20501;-66
2023/08/02 08:04:58;;;;;;;0.90;0.30;;;;;;;;;;5036590;28;20493;-65
2023/08/02 08:07:26;;;;;;;0.80;0.60;;;18.90;99.90;;;;;;5035115;28;20556;-66
2023/08/02 08:09:54;;;;;;;0.60;0.20;;;18.80;99.90;;;;;;5035769;28;20443;-65
2023/08/02 08:12:22;;;;;;;0.60;0.17;;;18.90;99.90;;;;;;5034663;28;20512;-65
2023/08/02 08:14:50;;;;;;;0.60;0.10;;;18.80;99.90;;;;;;5033242;28;20461;-65
2023/08/02 08:17:18;;;;;;;0.60;0.10;;;18.90;99.90;;;;;;5034207;28;20478;-65
2023/08/02 08:19:46;;;;;;;0.60;0.10;;;19.00;99.90;;;;;;5034199;28;20456;-66
2023/08/02 08:22:18;;;;;;;0.60;0.20;;;19.10;99.90;;;;;;5033823;28;20552;-65
2023/08/02 08:24:46;;;;;;;0.60;0.10;;;19.10;99.90;;;;;;5031605;28;20566;-65
2023/08/02 08:27:14;;;;;;;0.60;0.10;;;19.20;99.90;;;;;;5033170;28;21018;-66
2023/08/02 08:29:41;;;;;;;0.60;0.20;;;19.30;99.90;;;;;;5032881;28;20443;-66
2023/08/02 08:32:09;;;;;;;0.60;0.20;;;19.30;99.90;;;;;;5033207;28;20459;-66
2023/08/02 08:34:37;;;;;;;0.60;0.10;;;19.40;99.90;;;;;;5033290;28;20434;-66
2023/08/02 08:37:05;;;;;;;0.60;0.10;;;19.30;99.90;;;;;;5032800;28;21026;-66
2023/08/02 08:39:37;;;;;;;0.60;0.10;;;19.30;99.90;;;;;;5030949;28;20539;-67
2023/08/02 08:42:07;;;;;;;0.60;0.10;;;19.40;99.90;;;;;;5033201;28;20459;-76
2023/08/02 08:44:37;;;;;;;0.60;0.10;;;19.40;99.90;;;;;;5049986;28;20477;-73
2023/08/02 08:47:07;;;;;;;0.60;0.10;;;19.40;99.90;;;;;;5054726;28;20453;-75
2023/08/02 08:49:35;;;;;;;0.60;0.10;;;19.20;99.90;;;;;;5050176;28;20517;-76
2023/08/02 08:52:05;;;;;;;0.60;0.10;;;19.20;99.90;;;;;;5033234;28;20968;-74
2023/08/02 08:54:38;;;;;;;0.60;0.10;;;19.20;99.90;;;;;;5033041;28;20438;-75
2023/08/02 08:57:08;;;;;;;0.60;0.13;;;19.10;99.90;;;;;;5031729;28;20535;-75
2023/08/02 08:59:37;;;;;;;0.60;0.10;;;;;;;;;;5033914;28;20443;-73
2023/08/02 09:02:05;;;;;;;0.60;0.10;;;19.20;99.90;;;;;;5027759;28;20997;-75
2023/08/02 09:04:35;;;;;;;0.70;0.30;;;19.10;99.90;;;;;;5033374;28;20560;-74
2023/08/02 09:07:03;;;;;;;0.60;0.10;;;19.00;99.90;;;;;;5033677;28;20446;-73
2023/08/02 09:09:30;;;;;;;0.60;0.10;;;18.90;99.90;;;;;;5032204;28;20446;-74
2023/08/02 09:12:00;;;;;;;0.60;0.17;;;18.90;99.90;;;;;;5032954;28;20469;-73
2023/08/02 09:14:28;;;;;;;0.60;0.10;;;18.90;99.90;;;;;;5033371;28;20857;-75
2023/08/02 09:16:58;;;;;;;0.60;0.10;;;18.90;99.90;;;;;;5032945;28;20450;-74
2023/08/02 09:19:28;;;;;;;0.60;0.10;;;18.90;99.90;;;;;;5031299;28;20434;-74
2023/08/02 09:22:09;;;;;;;0.60;0.10;;;18.90;99.90;;;;;;5033191;28;20465;-73
2023/08/02 09:24:39;;;;;;;0.60;0.10;;;18.90;99.90;;;;;;5033678;28;20475;-74
2023/08/02 09:27:15;;;;;;;0.60;0.10;;;18.80;99.90;;;;;;5029259;28;20489;-73
2023/08/02 09:29:46;;;;;;;0.60;0.10;;;18.80;99.90;;;;;;5031113;28;20936;-74
2023/08/02 09:32:14;;;;;;;0.60;0.20;;;18.80;99.90;;;;;;5032767;28;20533;-74
2023/08/02 09:34:44;;;;;;;0.63;0.27;;;18.80;1.00;;;;;;5032828;28;20443;-74
2023/08/02 09:37:13;;;;;;;0.60;0.30;;;18.80;1.00;;;;;;5034967;28;20435;-74
2023/08/02 09:39:48;;;;;;;0.60;0.10;;;18.70;1.00;;;;;;5034851;28;21005;-72
2023/08/02 09:42:18;;;;;;;0.60;0.10;;;18.80;1.00;;;;;;5035495;28;20475;-73
2023/08/02 09:44:54;;;;;;;0.80;0.50;;;18.70;1.00;;;;;;5036196;28;20481;-74
2023/08/02 09:47:22;;;;;;;0.60;0.10;;;;;;;;;;5036357;28;20522;-78
2023/08/02 09:50:03;;;;;;;0.60;0.10;;;18.70;1.00;;;;;;5038564;28;20473;-78
2023/08/02 09:52:32;;;;;;;0.60;0.20;;;18.70;1.00;;;;;;5036349;28;20463;-74
2023/08/02 09:54:59;;;;;;;0.60;0.10;;;18.80;1.00;;;;;;5033435;28;20444;-75
2023/08/02 09:57:30;;;;;;;0.60;0.10;;;18.80;1.00;;;;;;5035151;28;20442;-77
2023/08/02 10:00:05;;;;;;;0.60;0.20;;;18.80;1.00;;;;;;5038419;28;20540;-76
2023/08/02 10:02:35;;;;;;;0.60;0.10;;;18.80;1.00;;;;;;5042968;28;20529;-76
2023/08/02 10:05:06;;;;;;;0.60;0.10;;;18.80;1.00;;;;;;5041308;28;20476;-75
2023/08/02 10:07:38;;;;;;;0.60;0.10;;;18.80;1.00;;;;;;5042472;28;20500;-75
2023/08/02 10:10:09;;;;;;;0.60;0.30;;;18.70;1.00;;;;;;5044017;28;20469;-75
2023/08/02 10:12:40;;;;;;;1.10;0.63;;;18.70;1.00;;;;;;5042067;28;20445;-76
2023/08/02 10:15:09;;;;;;;0.60;0.10;;;18.70;1.00;;;;;;5034558;28;20436;-76
2023/08/02 10:17:37;;;;;;;0.60;0.10;;;18.80;1.00;;;;;;5031562;28;20442;-76
2023/08/02 10:20:07;;;;;;;0.60;0.10;;;18.80;1.00;;;;;;5034518;28;20442;-76
2023/08/02 10:22:36;;;;;;;1.30;0.33;;;18.90;1.00;;;;;;5139928;22;20514;-71
2023/08/02 10:25:06;;;;;;;0.60;0.10;;;18.80;1.00;;;;;;5027624;28;20572;-71
2023/08/02 10:27:35;;;;;;;0.60;0.10;;;18.80;1.00;;;;;;5015389;28;20447;-72
2023/08/02 10:30:06;;;;;;;0.60;0.10;;;18.90;1.00;;;;;;5019376;28;20442;-73
2023/08/02 10:32:34;;;;;;;0.60;0.20;;;21.10;1.00;;;;;;5021797;28;20462;-71
2023/08/02 10:35:02;;;;;;;0.60;0.10;;;18.90;1.00;;;;;;5023195;28;20530;-72
2023/08/02 10:37:52;;;;;;;0.70;0.33;;;18.90;1.00;;;;;;5031806;28;20460;-70
2023/08/02 10:40:21;;;;;;;0.60;0.10;;;18.90;1.00;;;;;;5031777;28;20442;-70
2023/08/02 10:43:05;;;;;;;0.60;0.30;;;19.00;1.00;;;;;;5031327;28;21017;-71
2023/08/02 10:45:35;;;;;;;0.60;0.20;;;19.00;1.00;;;;;;5031253;28;20486;-70
2023/08/02 10:48:25;;;;;;;0.60;0.20;;;19.00;1.00;;;;;;5031750;28;20463;-70
2023/08/02 10:50:53;;;;;;;0.60;0.10;;;19.00;1.00;;;;;;5031939;28;20572;-69
2023/08/02 10:53:21;;;;;;;0.60;0.10;;;19.10;1.00;;;;;;5031597;28;20491;-69
2023/08/02 10:56:06;;;;;;;1.03;0.93;;;19.10;1.00;;;;;;5031598;28;20438;-71
2023/08/02 10:58:52;;;;;;;0.60;0.10;;;19.00;1.00;;;;;;5015207;28;20447;-70
2023/08/02 11:01:22;;;;;;;0.60;0.20;;;19.10;1.00;;;;;;5000519;28;20518;-70
2023/08/02 11:03:50;;;;;;;0.60;0.10;;;19.10;1.00;;;;;;5010947;28;20533;-70
2023/08/02 11:06:33;;;;;;;0.60;0.10;;;19.10;1.00;;;;;;5011305;28;20914;-70
2023/08/02 11:09:05;;;;;;;0.60;0.20;;;19.20;1.00;;;;;;5012608;28;20503;-70
2023/08/02 11:11:36;;;;;;;0.60;0.10;;;19.20;1.00;;;;;;5011906;28;20468;-70
2023/08/02 11:14:04;;;;;;;0.60;0.10;;;19.20;1.00;;;;;;5011455;28;20450;-71
2023/08/02 11:16:40;;;;;;;0.60;0.20;;;19.20;1.00;;;;;;5011045;28;20447;-70
2023/08/02 11:19:21;;;;;;;0.60;0.30;;;19.20;1.00;;;;;;5011291;28;20499;-71
2023/08/02 11:21:53;;;;;;;0.60;0.10;;;19.20;1.00;;;;;;5011530;28;20475;-70
2023/08/02 11:24:21;;;;;;;0.60;0.10;;;19.20;1.00;;;;;;5011298;28;20471;-70
2023/08/02 11:26:55;;;;;;;0.70;0.20;;;19.20;1.00;;;;;;5010951;28;20439;-70
2023/08/02 11:29:23;;;;;;;0.60;0.20;;;19.20;1.00;;;;;;5011140;28;20455;-70
2023/08/02 11:31:55;;;;;;;0.60;0.30;;;19.20;1.00;;;;;;5011420;28;20466;-70
2023/08/02 11:34:24;;;;;;;1.73;0.77;;;19.10;1.00;;;;;;5011614;28;20444;-70
2023/08/02 11:36:52;;;;;;;0.80;0.40;;;19.10;1.00;;;;;;5011754;28;20436;-70
2023/08/02 11:39:21;;;;;;;0.70;0.37;;;19.10;1.00;;;;;;5011333;28;20517;-70
2023/08/02 11:42:02;;;;;;;10.83;0.77;;;19.00;1.00;;;;;;5010783;28;21060;-70
2023/08/02 11:44:29;;;;;;;0.60;0.10;;;19.10;1.00;;;;;;5026017;28;20497;-70
2023/08/02 11:46:59;;;;;;;0.60;0.10;;;19.10;1.00;;;;;;5030450;28;20548;-70
2023/08/02 11:49:27;;;;;;;0.70;0.20;;;19.00;1.00;;;;;;5029700;28;20486;-72
2023/08/02 11:51:55;;;;;;;0.80;0.60;;;19.00;1.00;;;;;;5030835;28;20565;-70
2023/08/02 11:54:23;;;;;;;0.60;0.20;;;19.00;1.00;;;;;;5031028;28;20442;-71
2023/08/02 11:56:51;;;;;;;1.23;0.93;;;19.00;1.00;;;;;;5030385;28;20478;-72
2023/08/02 11:59:19;;;;;;;1.83;0.60;;;18.90;7.60;;;;;;5024832;28;20535;-70
2023/08/02 12:01:46;;;;;;;0.60;0.30;;;18.90;48.80;;;;;;5007187;28;20559;-69
2023/08/02 12:04:16;;;;;;;0.60;0.20;;;18.90;80.70;;;;;;5030426;28;20457;-69
2023/08/02 12:06:46;;;;;;;1.33;0.83;;;18.90;99.10;;;;;;5030031;28;21006;-71
2023/08/02 12:09:14;;;;;;;0.60;0.10;;;19.00;99.90;;;;;;5030535;28;20448;-71
2023/08/02 12:11:43;;;;;;;0.60;0.10;;;19.00;99.90;;;;;;5030307;28;20474;-71
2023/08/02 12:14:11;;;;;;;0.60;0.10;;;19.10;99.90;;;;;;5020692;28;20470;-71
2023/08/02 12:16:40;;;;;;;0.60;0.20;;;19.10;99.90;;;;;;5013431;28;20527;-70
2023/08/02 12:19:09;;;;;;;0.60;0.20;;;19.20;99.90;;;;;;5017225;28;20447;-70
2023/08/02 12:21:38;;;;;;;1.43;0.87;;;19.20;99.90;;;;;;5023472;28;20563;-71
2023/08/02 12:24:14;;;;;;;0.60;0.10;;;19.30;99.90;;;;;;4993416;28;20448;-70
2023/08/02 12:26:41;;;;;;;0.70;0.20;;;19.30;95.70;;;;;;4990872;28;20487;-72
2023/08/02 12:29:21;;;;;;;0.60;0.10;;;19.30;99.20;;;;;;4997299;28;20854;-71
2023/08/02 12:31:49;;;;;;;0.60;0.20;;;19.30;99.90;;;;;;5013883;28;20503;-69
2023/08/02 12:34:17;;;;;;;2.50;2.30;;;19.30;99.90;;;;;;5019393;28;20471;-70
2023/08/02 12:36:47;;;;;;;0.60;0.10;;;19.30;99.90;;;;;;5029819;28;20477;-70
2023/08/02 12:39:15;;;;;;;0.70;0.33;;;19.30;99.90;;;;;;5030377;28;20466;-70
2023/08/02 12:41:44;;;;;;;1.10;0.40;;;19.40;99.90;;;;;;5029634;28;20463;-71
2023/08/02 12:44:12;;;;;;;0.60;0.20;;;19.40;99.90;;;;;;5018664;28;20508;-71
2023/08/02 12:46:40;;;;;;;1.13;0.30;;;19.30;99.90;;;;;;5013883;28;20971;-71
2023/08/02 12:49:08;;;;;;;0.60;0.20;;;19.40;99.90;;;;;;5014204;28;20446;-71
2023/08/02 12:51:38;;;;;;;0.60;0.20;;;19.40;99.90;;;;;;5013967;28;20826;-72
2023/08/02 12:54:07;;;;;;;0.60;0.10;;;19.50;99.90;;;;;;5013939;28;20454;-71
2023/08/02 12:56:36;;;;;;;0.60;0.20;;;;;;;;;;5013716;28;20479;-70
2023/08/02 12:59:03;;;;;;;0.80;0.50;;;19.60;99.90;;;;;;5013933;28;20448;-69
2023/08/02 13:01:31;;;;;;;0.60;0.10;;;19.70;99.90;;;;;;5014458;28;20467;-70
2023/08/02 13:04:02;;;;;;;1.03;0.50;;;19.80;99.90;;;;;;5014436;28;20452;-70
2023/08/02 13:06:30;;;;;;;0.70;0.30;;;19.80;99.90;;;;;;5013721;28;20568;-71
2023/08/02 13:09:03;;;;;;;1.47;1.20;;;19.90;99.90;;;;;;5014900;28;20535;-70
2023/08/02 13:11:32;;;;;;;1.17;0.37;;;20.00;99.90;;;;;;5014651;28;20466;-70
2023/08/02 13:14:00;;;;;;;0.60;0.30;;;20.10;99.90;;;;;;5013694;28;20452;-71
2023/08/02 13:16:28;;;;;;;1.10;0.77;;;20.10;39.00;;;;;;5013993;28;20444;-70
2023/08/02 13:18:56;;;;;;;0.70;0.23;;;;;;;;;;5013653;28;20448;-70
2023/08/02 13:21:24;;;;;;;0.70;0.60;;;20.40;24.90;;;;;;5013689;28;20452;-71
2023/08/02 13:23:52;;;;;;;0.80;0.40;;;20.40;21.90;;;;;;5013748;28;20877;-71
2023/08/02 13:26:20;;;;;;;0.80;0.50;;;20.60;1.00;;;;;;5013975;28;20563;-71
2023/08/02 13:28:49;;;;;;;0.60;0.20;;;20.60;1.00;;;;;;5014084;28;20879;-71
2023/08/02 13:31:17;;;;;;;0.60;0.20;;;20.70;1.00;;;;;;5004406;28;20451;-71
2023/08/02 13:33:46;;;;;;;1.03;0.90;;;20.70;1.00;;;;;;4993642;28;20577;-70
2023/08/02 13:36:14;;;;;;;1.90;0.77;;;20.70;1.00;;;;;;4993354;28;20449;-71
2023/08/02 13:38:41;;;;;;;0.80;0.60;;;20.70;1.00;;;;;;4993939;28;20474;-70
2023/08/02 13:41:10;;;;;;;0.80;0.50;;;;;;;;;;4993369;28;20484;-70
2023/08/02 13:43:38;;;;;;;0.60;0.20;;;;;;;;;;5009621;28;20857;-72
2023/08/02 13:46:07;;;;;;;0.60;0.20;;;20.80;1.00;;;;;;5032522;28;20482;-73
2023/08/02 13:48:35;;;;;;;3.90;0.50;;;20.80;1.00;;;;;;5032806;28;20457;-70
2023/08/02 13:51:03;;;;;;;0.70;0.33;;;20.70;1.00;;;;;;5032924;28;20444;-70
2023/08/02 13:53:31;;;;;;;0.70;0.27;;;20.60;1.00;;;;;;5023394;28;20437;-70
2023/08/02 13:55:59;;;;;;;1.47;0.70;;;20.60;1.00;;;;;;5029275;28;20450;-71
2023/08/02 13:58:27;;;;;;;0.97;0.50;;;20.60;1.00;;;;;;5033474;28;20447;-70
2023/08/02 14:00:55;;;;;;;0.60;0.30;;;20.50;1.00;;;;;;5032358;28;20447;-71
2023/08/02 14:03:24;;;;;;;1.00;0.77;;;20.50;1.00;;;;;;5032309;28;20487;-72
2023/08/02 14:05:52;;;;;;;0.77;0.27;;;20.50;1.00;;;;;;5032346;28;20443;-71
2023/08/02 14:08:20;;;;;;;2.50;0.57;;;20.50;1.00;;;;;;5032322;28;20943;-70
2023/08/02 14:10:48;;;;;;;0.60;0.20;;;20.60;1.00;;;;;;5032045;28;20469;-71
2023/08/02 14:13:16;;;;;;;0.60;0.20;;;20.40;1.00;;;;;;5032206;28;20489;-70
2023/08/02 14:15:44;;;;;;;0.60;0.10;;;20.50;1.00;;;;;;5032045;28;20441;-70
2023/08/02 14:18:11;;;;;;;0.60;0.10;;;20.50;1.00;;;;;;5032635;28;20493;-71
2023/08/02 14:20:41;;;;;;;0.60;0.10;;;20.40;1.00;;;;;;5032487;28;20443;-71
2023/08/02 14:23:08;;;;;;;2.20;0.77;;;20.40;1.00;;;;;;5031805;28;20554;-71
2023/08/02 14:25:36;;;;;;;0.60;0.20;;;20.40;8.00;;;;;;5031750;28;20450;-69
2023/08/02 14:28:08;;;;;;;0.60;0.17;;;20.30;34.60;;;;;;5031616;28;20479;-69
2023/08/02 14:30:36;;;;;;;1.03;0.63;;;20.30;63.20;;;;;;5027799;28;20448;-72
2023/08/02 14:33:04;;;;;;;1.70;0.80;;;;;;;;;;5012004;28;20502;-72
2023/08/02 14:35:32;;;;;;;2.57;1.43;;;20.20;99.90;;;;;;5011991;28;20860;-70
2023/08/02 14:38:01;;;;;;;0.60;0.10;;;20.20;99.90;;;;;;5012194;28;20842;-71
2023/08/02 14:40:30;;;;;;;1.17;1.07;;;20.20;99.90;;;;;;5012057;28;20547;-71
2023/08/02 14:42:58;;;;;;;4.10;1.27;;;;;;;;;;5013979;28;21046;-70
2023/08/02 14:45:26;;;;;;;2.30;1.23;;;20.40;99.90;;;;;;5031550;28;20447;-71
2023/08/02 14:47:54;;;;;;;0.70;0.30;;;20.40;99.90;;;;;;5031909;28;20995;-70
2023/08/02 14:50:24;;;;;;;1.93;1.20;;;20.40;99.90;;;;;;5031748;28;20541;-71
2023/08/02 14:52:52;;;;;;;3.50;1.60;;;20.40;99.90;;;;;;5031039;28;20979;-71
2023/08/02 14:55:21;;;;;;;1.17;0.87;;;20.30;99.90;;;;;;5031030;28;20446;-71
2023/08/02 14:57:49;;;;;;;1.00;0.47;;;20.20;65.70;;;;;;5031608;28;20447;-71
2023/08/02 15:00:17;;;;;;;8.13;1.70;;;20.20;73.30;;;;;;5032015;28;20482;-71
2023/08/02 15:02:45;;;;;;;3.57;1.73;;;20.10;1.00;;;;;;5031176;28;20511;-71
2023/08/02 15:05:14;;;;;;;4.67;1.50;;;20.00;1.00;;;;;;5031078;28;20533;-70
2023/08/02 15:07:42;;;;;;;0.67;0.37;;;20.00;1.00;;;;;;5030267;28;20555;-70
2023/08/02 15:10:12;;;;;;;0.60;0.20;;;19.90;1.00;;;;;;5032261;28;20450;-69
2023/08/02 15:12:41;;;;;;;1.10;0.70;;;19.90;1.00;;;;;;5031289;28;20511;-71
2023/08/02 15:15:11;;;;;;;1.00;0.60;;;19.80;1.00;;;;;;5031020;28;20447;-72
2023/08/02 15:17:39;;;;;;;0.60;0.20;;;19.70;1.00;;;;;;5031238;28;20481;-71
2023/08/02 15:20:09;;;;;;;1.83;1.23;;;19.80;1.00;;;;;;5030870;28;20470;-72
2023/08/02 15:22:37;;;;;;;0.70;0.27;;;19.70;1.00;;;;;;5030953;28;20506;-69
2023/08/02 15:25:05;;;;;;;1.30;0.83;;;19.50;1.00;;;;;;5030807;28;20525;-70
2023/08/02 15:27:33;;;;;;;0.60;0.10;;;19.30;99.90;;;;;;5031044;28;20483;-70
2023/08/02 15:30:02;;;;;;;0.70;0.30;;;19.20;99.90;;;;;;5031150;28;20482;-70
2023/08/02 15:32:30;;;;;;;1.00;0.40;;;19.20;99.90;;;;;;4991610;28;20471;-72
2023/08/02 15:34:58;;;;;;;0.60;0.20;;;19.10;99.90;;;;;;4992351;28;20447;-70
2023/08/02 15:37:25;;;;;;;1.00;0.70;;;19.00;99.90;;;;;;4992243;28;20491;-71
2023/08/02 15:39:54;;;;;;;0.90;0.67;;;18.90;99.90;;;;;;4992121;28;20474;-71
2023/08/02 15:42:23;;;;;;;1.00;0.40;;;18.70;99.90;;;;;;4992588;28;20490;-71
2023/08/02 15:44:52;;;;;;;0.67;0.30;;;18.60;99.90;;;;;;5026603;28;20446;-72
2023/08/02 15:47:21;;;;;;;0.80;0.30;;;18.50;99.90;;;;;;5031023;28;20521;-72
2023/08/02 15:49:49;;;;;;;0.60;0.20;;;18.50;99.90;;;;;;5030752;28;20494;-71
2023/08/02 15:52:16;;;;;;;0.60;0.20;;;18.50;99.90;;;;;;5030798;28;20561;-71
2023/08/02 15:54:44;;;;;;;2.30;0.63;;;18.50;99.90;;;;;;5019232;28;20455;-72
2023/08/02 15:57:12;;;;;;;1.10;0.40;;;18.50;99.90;;;;;;5010529;28;20985;-71
2023/08/02 15:59:40;;;;;;;0.90;0.47;;;18.50;1.00;;;;;;5010965;28;20814;-72
2023/08/02 16:02:08;;;;;;;1.93;0.57;;;18.50;1.00;;;;;;5011076;28;20502;-71
2023/08/02 16:04:41;;;;;;;2.80;0.33;;;18.50;1.00;;;;;;5011413;28;20447;-71
2023/08/02 16:07:09;;;;;;;0.90;0.57;;;18.20;1.00;;;;;;5012406;28;20553;-72
2023/08/02 16:09:37;;;;;;;0.80;0.43;;;18.30;1.00;;;;;;5010455;28;20520;-71
2023/08/02 16:12:06;;;;;;;0.83;0.20;;;18.40;1.00;;;;;;5011778;28;20500;-72
2023/08/02 16:14:34;;;;;;;0.80;0.50;;;18.50;1.00;;;;;;5019020;28;20522;-72
2023/08/02 16:17:01;;;;;;;0.90;0.67;;;18.60;99.90;;;;;;5016181;28;20521;-70
2023/08/02 16:19:29;;;;;;;0.60;0.20;;;18.60;99.90;;;;;;5020970;28;20810;-71
2023/08/02 16:21:58;;;;;;;0.60;0.10;;;18.70;99.90;;;;;;5025888;28;20462;-71
2023/08/02 16:24:26;;;;;;;0.60;0.20;;;18.80;99.90;;;;;;5023220;28;20444;-72
2023/08/02 16:26:54;;;;;;;0.70;0.50;;;19.00;99.90;;;;;;5017995;28;20460;-72
2023/08/02 16:29:22;;;;;;;18.10;16.63;;;19.20;99.90;;;;;;5029380;28;20485;-72
2023/08/02 16:31:50;;;;;;;2.57;0.90;;;19.50;99.90;;;;;;5014172;28;20471;-72
2023/08/02 16:34:18;;;;;;;1.90;0.60;;;19.70;99.90;;;;;;5014527;28;20546;-73
2023/08/02 16:36:46;;;;;;;0.90;0.40;;;19.70;99.90;;;;;;5022475;28;20560;-72
2023/08/02 16:39:15;;;;;;;1.73;0.60;;;19.90;99.90;;;;;;5029602;28;20519;-72
2023/08/02 16:41:43;;;;;;;0.60;0.10;;;20.00;99.90;;;;;;5027754;28;20460;-70
2023/08/02 16:44:12;;;;;;;0.60;0.10;;;20.00;99.90;;;;;;5016912;28;20451;-72
2023/08/02 16:46:40;;;;;;;1.67;0.67;;;20.60;99.90;;;;;;5021736;28;20803;-72
2023/08/02 16:49:08;;;;;;;0.90;0.30;;;20.60;99.90;;;;;;5028837;28;20483;-73
2023/08/02 16:51:36;;;;;;;0.60;0.10;;;20.90;99.90;;;;;;5030463;28;20475;-71
2023/08/02 16:54:04;;;;;;;0.60;0.20;;;21.10;99.90;;;;;;5020448;28;20538;-71
2023/08/02 16:56:33;;;;;;;1.20;0.80;;;21.30;99.90;;;;;;5015142;28;20452;-73
2023/08/02 16:59:01;;;;;;;0.60;0.20;;;21.30;99.90;;;;;;5025793;28;20478;-71
2023/08/02 17:01:29;;;;;;;1.57;1.03;;;21.60;99.90;;;;;;5033863;28;20570;-71
2023/08/02 17:03:57;;;;;;;0.60;0.20;;;21.80;99.90;;;;;;5033773;28;20452;-71
2023/08/02 17:06:26;;;;;;;1.10;0.63;;;;;;;;;;5031016;28;20448;-72